sensor_id;sensor_type;location;lat;lon;timestamp;pressure;altitude;pressure_sealevel;temperature;humidity
25560;BME280;13450;49.374;8.584;2022-12-18T00:00:59;101872.81;;;-8.08;100.00
25560;BME280;13450;49.374;8.584;2022-12-18T00:03:25;101879.75;;;-8.07;100.00
25560;BME280;13450;49.374;8.584;2022-12-18T00:05:53;101877.97;;;-8.06;100.00
25560;BME280;13450;49.374;8.584;2022-12-18T00:08:19;101862.34;;;-8.05;100.00
25560;BME280;13450;49.374;8.584;2022-12-18T00:10:45;101857.19;;;-8.06;100.00
25560;BME280;13450;49.374;8.584;2022-12-18T00:13:12;101860.59;;;-8.03;100.00
25560;BME280;13450;49.374;8.584;2022-12-18T00:15:39;101868.34;;;-8.01;100.00
25560;BME280;13450;49.374;8.584;2022-12-18T00:18:04;101870.91;;;-7.98;100.00
25560;BME280;13450;49.374;8.584;2022-12-18T00:20:31;101869.22;;;-8.01;100.00
25560;BME280;13450;49.374;8.584;2022-12-18T00:22:56;101870.91;;;-7.99;100.00
25560;BME280;13450;49.374;8.584;2022-12-18T00:25:24;101870.06;;;-7.98;100.00
25560;BME280;13450;49.374;8.584;2022-12-18T00:27:52;101875.25;;;-7.98;100.00
25560;BME280;13450;49.374;8.584;2022-12-18T00:30:17;101863.97;;;-7.97;100.00
25560;BME280;13450;49.374;8.584;2022-12-18T00:32:43;101861.34;;;-7.96;100.00
25560;BME280;13450;49.374;8.584;2022-12-18T00:35:08;101860.47;;;-7.96;100.00
25560;BME280;13450;49.374;8.584;2022-12-18T00:37:34;101866.53;;;-7.96;100.00
25560;BME280;13450;49.374;8.584;2022-12-18T00:39:59;101855.28;;;-7.96;100.00
25560;BME280;13450;49.374;8.584;2022-12-18T00:42:24;101863.97;;;-7.97;100.00
25560;BME280;13450;49.374;8.584;2022-12-18T00:45:10;101860.47;;;-7.96;100.00
25560;BME280;13450;49.374;8.584;2022-12-18T00:47:36;101869.22;;;-8.01;100.00
25560;BME280;13450;49.374;8.584;2022-12-18T00:50:02;101868.34;;;-8.01;100.00
25560;BME280;13450;49.374;8.584;2022-12-18T00:52:27;101876.94;;;-7.96;100.00
25560;BME280;13450;49.374;8.584;2022-12-18T00:54:52;101879.47;;;-7.94;100.00
25560;BME280;13450;49.374;8.584;2022-12-18T00:57:18;101876.03;;;-7.93;100.00
25560;BME280;13450;49.374;8.584;2022-12-18T00:59:43;101883.72;;;-7.89;100.00
25560;BME280;13450;49.374;8.584;2022-12-18T01:02:08;101874.09;;;-7.85;100.00
25560;BME280;13450;49.374;8.584;2022-12-18T01:04:34;101877.53;;;-7.83;100.00
25560;BME280;13450;49.374;8.584;2022-12-18T01:07:00;101874.03;;;-7.82;100.00
25560;BME280;13450;49.374;8.584;2022-12-18T01:09:28;101880.91;;;-7.78;100.00
25560;BME280;13450;49.374;8.584;2022-12-18T01:11:53;101875.69;;;-7.78;100.00
25560;BME280;13450;49.374;8.584;2022-12-18T01:14:19;101869.59;;;-7.77;100.00
25560;BME280;13450;49.374;8.584;2022-12-18T01:16:44;101873.03;;;-7.73;100.00
25560;BME280;13450;49.374;8.584;2022-12-18T01:19:09;101873.84;;;-7.72;100.00
25560;BME280;13450;49.374;8.584;2022-12-18T01:21:35;101873.84;;;-7.71;100.00
25560;BME280;13450;49.374;8.584;2022-12-18T01:24:01;101867.75;;;-7.71;100.00
25560;BME280;13450;49.374;8.584;2022-12-18T01:26:26;101862.66;;;-7.75;100.00
25560;BME280;13450;49.374;8.584;2022-12-18T01:28:57;101868.66;;;-7.72;100.00
25560;BME280;13450;49.374;8.584;2022-12-18T01:31:23;101866.94;;;-7.73;100.00
25560;BME280;13450;49.374;8.584;2022-12-18T01:33:49;101865.25;;;-7.75;100.00
25560;BME280;13450;49.374;8.584;2022-12-18T01:36:26;101870.38;;;-7.71;100.00
25560;BME280;13450;49.374;8.584;2022-12-18T01:38:53;101876.47;;;-7.72;100.00
25560;BME280;13450;49.374;8.584;2022-12-18T01:41:21;101878.16;;;-7.71;100.00
25560;BME280;13450;49.374;8.584;2022-12-18T01:43:51;101872.09;;;-7.70;100.00
25560;BME280;13450;49.374;8.584;2022-12-18T01:46:19;101870.38;;;-7.71;100.00
25560;BME280;13450;49.374;8.584;2022-12-18T01:48:50;101868.66;;;-7.72;100.00
25560;BME280;13450;49.374;8.584;2022-12-18T01:51:16;101865.25;;;-7.75;100.00
25560;BME280;13450;49.374;8.584;2022-12-18T01:53:46;101866.94;;;-7.73;100.00
25560;BME280;13450;49.374;8.584;2022-12-18T01:56:14;101861.69;;;-7.70;100.00
25560;BME280;13450;49.374;8.584;2022-12-18T01:59:02;101865.16;;;-7.71;100.00
25560;BME280;13450;49.374;8.584;2022-12-18T02:01:30;101886.78;;;-7.68;100.00
25560;BME280;13450;49.374;8.584;2022-12-18T02:06:51;101874.69;;;-7.69;100.00
25560;BME280;13450;49.374;8.584;2022-12-18T02:09:33;101869.47;;;-7.69;100.00
25560;BME280;13450;49.374;8.584;2022-12-18T02:15:02;101861.63;;;-7.67;100.00
25560;BME280;13450;49.374;8.584;2022-12-18T02:17:43;101870.25;;;-7.65;100.00
25560;BME280;13450;49.374;8.584;2022-12-18T02:26:13;101885.91;;;-7.68;100.00
25560;BME280;13450;49.374;8.584;2022-12-18T02:28:46;101890.28;;;-7.69;100.00
25560;BME280;13450;49.374;8.584;2022-12-18T02:31:19;101892.91;;;-7.70;100.00
25560;BME280;13450;49.374;8.584;2022-12-18T02:33:48;101892.94;;;-7.73;100.00
25560;BME280;13450;49.374;8.584;2022-12-18T02:36:16;101893.00;;;-7.77;100.00
25560;BME280;13450;49.374;8.584;2022-12-18T02:38:44;101890.44;;;-7.78;100.00
25560;BME280;13450;49.374;8.584;2022-12-18T02:41:11;101894.81;;;-7.80;100.00
25560;BME280;13450;49.374;8.584;2022-12-18T02:43:38;101883.63;;;-7.84;100.00
25560;BME280;13450;49.374;8.584;2022-12-18T02:48:56;101861.22;;;-7.90;100.00
25560;BME280;13450;49.374;8.584;2022-12-18T02:51:30;101854.41;;;-7.97;100.00
25560;BME280;13450;49.374;8.584;2022-12-18T02:54:10;101868.22;;;-7.93;100.00
25560;BME280;13450;49.374;8.584;2022-12-18T02:56:46;101857.88;;;-7.96;100.00
25560;BME280;13450;49.374;8.584;2022-12-18T02:59:31;101841.50;;;-8.02;100.00
25560;BME280;13450;49.374;8.584;2022-12-18T03:02:14;101860.66;;;-8.06;100.00
25560;BME280;13450;49.374;8.584;2022-12-18T03:04:47;101865.09;;;-8.12;100.00
25560;BME280;13450;49.374;8.584;2022-12-18T03:07:21;101870.66;;;-8.33;100.00
25560;BME280;13450;49.374;8.584;2022-12-18T03:09:50;101874.97;;;-8.32;100.00
25560;BME280;13450;49.374;8.584;2022-12-18T03:12:29;101876.69;;;-8.31;100.00
25560;BME280;13450;49.374;8.584;2022-12-18T03:15:03;101870.63;;;-8.30;100.00
25560;BME280;13450;49.374;8.584;2022-12-18T03:17:31;101871.41;;;-8.24;100.00
25560;BME280;13450;49.374;8.584;2022-12-18T03:20:06;101871.41;;;-8.24;100.00
25560;BME280;13450;49.374;8.584;2022-12-18T03:22:35;101871.31;;;-8.21;100.00
25560;BME280;13450;49.374;8.584;2022-12-18T03:25:05;101855.69;;;-8.20;100.00
25560;BME280;13450;49.374;8.584;2022-12-18T03:27:33;101846.19;;;-8.19;100.00
25560;BME280;13450;49.374;8.584;2022-12-18T03:30:08;101845.28;;;-8.18;100.00
25560;BME280;13450;49.374;8.584;2022-12-18T03:35:11;101878.25;;;-8.20;100.00
25560;BME280;13450;49.374;8.584;2022-12-18T03:37:38;101886.03;;;-8.20;100.00
25560;BME280;13450;49.374;8.584;2022-12-18T03:40:05;101873.16;;;-8.27;100.00
25560;BME280;13450;49.374;8.584;2022-12-18T03:42:44;101862.84;;;-8.30;100.00
25560;BME280;13450;49.374;8.584;2022-12-18T03:45:22;101868.06;;;-8.33;100.00
25560;BME280;13450;49.374;8.584;2022-12-18T03:48:00;101870.75;;;-8.37;100.00
25560;BME280;13450;49.374;8.584;2022-12-18T03:55:47;101868.25;;;-8.44;100.00
25560;BME280;13450;49.374;8.584;2022-12-18T03:58:20;101881.25;;;-8.44;100.00
25560;BME280;13450;49.374;8.584;2022-12-18T04:00:49;101872.59;;;-8.44;100.00
25560;BME280;13450;49.374;8.584;2022-12-18T04:03:18;101871.78;;;-8.46;100.00
25560;BME280;13450;49.374;8.584;2022-12-18T04:05:48;101866.59;;;-8.48;100.00
25560;BME280;13450;49.374;8.584;2022-12-18T04:08:15;101870.13;;;-8.50;100.00
25560;BME280;13450;49.374;8.584;2022-12-18T04:10:41;101863.28;;;-8.55;100.00
25560;BME280;13450;49.374;8.584;2022-12-18T04:13:06;101871.06;;;-8.53;100.00
25560;BME280;13450;49.374;8.584;2022-12-18T04:15:34;101869.41;;;-8.59;100.00
25560;BME280;13450;49.374;8.584;2022-12-18T04:18:03;101866.81;;;-8.59;100.00
25560;BME280;13450;49.374;8.584;2022-12-18T04:20:28;101863.41;;;-8.61;100.00
25560;BME280;13450;49.374;8.584;2022-12-18T04:22:54;101864.31;;;-8.63;100.00
25560;BME280;13450;49.374;8.584;2022-12-18T04:25:19;101860.03;;;-8.66;100.00
25560;BME280;13450;49.374;8.584;2022-12-18T04:27:44;101859.97;;;-8.63;100.00
25560;BME280;13450;49.374;8.584;2022-12-18T04:30:10;101851.28;;;-8.62;100.00
25560;BME280;13450;49.374;8.584;2022-12-18T04:32:39;101858.19;;;-8.59;100.00
25560;BME280;13450;49.374;8.584;2022-12-18T04:35:05;101852.16;;;-8.63;100.00
25560;BME280;13450;49.374;8.584;2022-12-18T04:37:35;101859.03;;;-8.60;100.00
25560;BME280;13450;49.374;8.584;2022-12-18T04:40:01;101860.81;;;-8.62;100.00
25560;BME280;13450;49.374;8.584;2022-12-18T04:42:26;101857.34;;;-8.63;100.00
25560;BME280;13450;49.374;8.584;2022-12-18T04:44:51;101855.66;;;-8.64;100.00
25560;BME280;13450;49.374;8.584;2022-12-18T04:47:16;101850.53;;;-8.69;100.00
25560;BME280;13450;49.374;8.584;2022-12-18T04:49:42;101843.59;;;-8.67;100.00
25560;BME280;13450;49.374;8.584;2022-12-18T04:52:07;101844.50;;;-8.71;100.00
25560;BME280;13450;49.374;8.584;2022-12-18T04:54:35;101843.63;;;-8.70;100.00
25560;BME280;13450;49.374;8.584;2022-12-18T04:57:00;101854.91;;;-8.72;100.00
25560;BME280;13450;49.374;8.584;2022-12-18T04:59:26;101858.44;;;-8.75;100.00
25560;BME280;13450;49.374;8.584;2022-12-18T05:01:54;101871.44;;;-8.76;100.00
25560;BME280;13450;49.374;8.584;2022-12-18T05:04:19;101869.72;;;-8.77;100.00
25560;BME280;13450;49.374;8.584;2022-12-18T05:06:44;101873.22;;;-8.78;100.00
25560;BME280;13450;49.374;8.584;2022-12-18T05:09:11;101874.94;;;-8.79;100.00
25560;BME280;13450;49.374;8.584;2022-12-18T05:11:36;101874.03;;;-8.78;100.00
25560;BME280;13450;49.374;8.584;2022-12-18T05:14:04;101884.47;;;-8.80;100.00
25560;BME280;13450;49.374;8.584;2022-12-18T05:16:29;101888.00;;;-8.84;100.00
25560;BME280;13450;49.374;8.584;2022-12-18T05:18:55;101886.34;;;-8.88;100.00
25560;BME280;13450;49.374;8.584;2022-12-18T05:21:20;101882.88;;;-8.90;100.00
25560;BME280;13450;49.374;8.584;2022-12-18T05:23:46;101884.69;;;-8.94;100.00
25560;BME280;13450;49.374;8.584;2022-12-18T05:26:16;101887.28;;;-8.94;100.00
25560;BME280;13450;49.374;8.584;2022-12-18T05:28:42;101892.53;;;-8.98;100.00
25560;BME280;13450;49.374;8.584;2022-12-18T05:31:07;101897.72;;;-8.98;100.00
25560;BME280;13450;49.374;8.584;2022-12-18T05:33:34;101893.41;;;-8.99;100.00
25560;BME280;13450;49.374;8.584;2022-12-18T05:36:04;101886.63;;;-9.07;100.00
25560;BME280;13450;49.374;8.584;2022-12-18T05:38:34;101878.84;;;-9.07;100.00
25560;BME280;13450;49.374;8.584;2022-12-18T05:40:59;101885.75;;;-9.09;100.00
25560;BME280;13450;49.374;8.584;2022-12-18T05:43:25;101876.28;;;-9.10;100.00
25560;BME280;13450;49.374;8.584;2022-12-18T05:45:52;101876.28;;;-9.10;100.00
25560;BME280;13450;49.374;8.584;2022-12-18T05:48:18;101872.78;;;-9.09;100.00
25560;BME280;13450;49.374;8.584;2022-12-18T05:50:45;101879.69;;;-9.08;100.00
25560;BME280;13450;49.374;8.584;2022-12-18T05:53:11;101865.03;;;-9.12;100.00
25560;BME280;13450;49.374;8.584;2022-12-18T05:55:39;101869.38;;;-9.12;100.00
25560;BME280;13450;49.374;8.584;2022-12-18T05:58:07;101865.94;;;-9.14;100.00
25560;BME280;13450;49.374;8.584;2022-12-18T06:00:34;101867.78;;;-9.23;100.00
25560;BME280;13450;49.374;8.584;2022-12-18T06:03:00;101880.75;;;-9.21;100.00
25560;BME280;13450;49.374;8.584;2022-12-18T06:05:25;101879.06;;;-9.24;100.00
25560;BME280;13450;49.374;8.584;2022-12-18T06:07:51;101874.72;;;-9.22;100.00
25560;BME280;13450;49.374;8.584;2022-12-18T06:10:19;101886.81;;;-9.22;100.00
25560;BME280;13450;49.374;8.584;2022-12-18T06:12:44;101882.50;;;-9.23;100.00
25560;BME280;13450;49.374;8.584;2022-12-18T06:15:10;101895.56;;;-9.29;100.00
25560;BME280;13450;49.374;8.584;2022-12-18T06:17:36;101889.56;;;-9.35;100.00
25560;BME280;13450;49.374;8.584;2022-12-18T06:20:01;101895.66;;;-9.36;100.00
25560;BME280;13450;49.374;8.584;2022-12-18T06:22:27;101893.94;;;-9.37;100.00
25560;BME280;13450;49.374;8.584;2022-12-18T06:24:57;101900.84;;;-9.36;100.00
25560;BME280;13450;49.374;8.584;2022-12-18T06:27:24;101901.69;;;-9.35;100.00
25560;BME280;13450;49.374;8.584;2022-12-18T06:29:50;101900.81;;;-9.33;100.00
25560;BME280;13450;49.374;8.584;2022-12-18T06:32:15;101904.28;;;-9.34;100.00
25560;BME280;13450;49.374;8.584;2022-12-18T06:34:42;101908.66;;;-9.39;100.00
25560;BME280;13450;49.374;8.584;2022-12-18T06:37:08;101894.84;;;-9.41;100.00
25560;BME280;13450;49.374;8.584;2022-12-18T06:39:33;101904.47;;;-9.49;100.00
25560;BME280;13450;49.374;8.584;2022-12-18T06:41:58;101907.94;;;-9.50;100.00
25560;BME280;13450;49.374;8.584;2022-12-18T06:44:24;101890.69;;;-9.54;100.00
25560;BME280;13450;49.374;8.584;2022-12-18T06:46:49;101887.25;;;-9.55;100.00
25560;BME280;13450;49.374;8.584;2022-12-18T06:49:14;101908.00;;;-9.56;100.00
25560;BME280;13450;49.374;8.584;2022-12-18T06:51:41;101914.94;;;-9.59;100.00
25560;BME280;13450;49.374;8.584;2022-12-18T06:54:07;101916.72;;;-9.61;100.00
25560;BME280;13450;49.374;8.584;2022-12-18T06:56:32;101923.66;;;-9.66;100.00
25560;BME280;13450;49.374;8.584;2022-12-18T06:58:58;101917.66;;;-9.69;100.00
25560;BME280;13450;49.374;8.584;2022-12-18T07:01:23;101923.75;;;-9.72;100.00
25560;BME280;13450;49.374;8.584;2022-12-18T07:03:55;101920.31;;;-9.74;100.00
25560;BME280;13450;49.374;8.584;2022-12-18T07:06:22;101921.22;;;-9.78;100.00
25560;BME280;13450;49.374;8.584;2022-12-18T07:08:49;101910.00;;;-9.80;100.00
25560;BME280;13450;49.374;8.584;2022-12-18T07:11:15;101929.84;;;-9.78;100.00
25560;BME280;13450;49.374;8.584;2022-12-18T07:13:41;101940.28;;;-9.81;100.00
25560;BME280;13450;49.374;8.584;2022-12-18T07:16:08;101944.50;;;-9.75;100.00
25560;BME280;13450;49.374;8.584;2022-12-18T07:18:34;101941.91;;;-9.75;100.00
25560;BME280;13450;49.374;8.584;2022-12-18T07:21:03;101940.22;;;-9.78;100.00
25560;BME280;13450;49.374;8.584;2022-12-18T07:23:29;101940.22;;;-9.79;100.00
25560;BME280;13450;49.374;8.584;2022-12-18T07:25:55;101947.09;;;-9.77;100.00
25560;BME280;13450;49.374;8.584;2022-12-18T07:28:20;101941.09;;;-9.79;100.00
25560;BME280;13450;49.374;8.584;2022-12-18T07:30:45;101949.69;;;-9.75;100.00
25560;BME280;13450;49.374;8.584;2022-12-18T07:33:11;101961.81;;;-9.74;100.00
25560;BME280;13450;49.374;8.584;2022-12-18T07:35:36;101959.16;;;-9.73;100.00
25560;BME280;13450;49.374;8.584;2022-12-18T07:38:01;101960.88;;;-9.70;100.00
25560;BME280;13450;49.374;8.584;2022-12-18T07:40:29;101957.38;;;-9.66;100.00
25560;BME280;13450;49.374;8.584;2022-12-18T07:42:54;101948.78;;;-9.69;100.00
25560;BME280;13450;49.374;8.584;2022-12-18T07:45:20;101953.94;;;-9.66;100.00
25560;BME280;13450;49.374;8.584;2022-12-18T07:47:45;101956.53;;;-9.66;100.00
25560;BME280;13450;49.374;8.584;2022-12-18T07:50:13;101952.25;;;-9.72;100.00
25560;BME280;13450;49.374;8.584;2022-12-18T07:52:38;101953.06;;;-9.67;100.00
25560;BME280;13450;49.374;8.584;2022-12-18T07:55:04;101955.63;;;-9.62;100.00
25560;BME280;13450;49.374;8.584;2022-12-18T07:57:29;101953.00;;;-9.61;100.00
25560;BME280;13450;49.374;8.584;2022-12-18T07:59:55;101959.84;;;-9.56;100.00
25560;BME280;13450;49.374;8.584;2022-12-18T08:02:20;101963.28;;;-9.51;100.00
25560;BME280;13450;49.374;8.584;2022-12-18T08:04:45;101961.50;;;-9.48;100.00
25560;BME280;13450;49.374;8.584;2022-12-18T08:07:11;101957.97;;;-9.42;100.00
25560;BME280;13450;49.374;8.584;2022-12-18T08:09:36;101954.41;;;-9.35;100.00
25560;BME280;13450;49.374;8.584;2022-12-18T08:12:02;101958.69;;;-9.32;100.00
25560;BME280;13450;49.374;8.584;2022-12-18T08:14:27;101949.97;;;-9.25;100.00
25560;BME280;13450;49.374;8.584;2022-12-18T08:16:53;101949.84;;;-9.14;100.00
25560;BME280;13450;49.374;8.584;2022-12-18T08:19:18;101954.09;;;-9.10;100.00
25560;BME280;13450;49.374;8.584;2022-12-18T08:21:43;101947.13;;;-9.04;100.00
25560;BME280;13450;49.374;8.584;2022-12-18T08:24:09;101955.56;;;-8.90;100.00
25560;BME280;13450;49.374;8.584;2022-12-18T08:26:34;101954.59;;;-8.81;100.00
25560;BME280;13450;49.374;8.584;2022-12-18T08:29:02;101955.28;;;-8.71;100.00
25560;BME280;13450;49.374;8.584;2022-12-18T08:31:29;101947.34;;;-8.62;100.00
25560;BME280;13450;49.374;8.584;2022-12-18T08:33:58;101955.03;;;-8.52;100.00
25560;BME280;13450;49.374;8.584;2022-12-18T08:36:24;101950.44;;;-8.40;100.00
25560;BME280;13450;49.374;8.584;2022-12-18T08:38:49;101947.69;;;-8.30;100.00
25560;BME280;13450;49.374;8.584;2022-12-18T08:41:16;101931.94;;;-8.19;100.00
25560;BME280;13450;49.374;8.584;2022-12-18T08:43:42;101932.47;;;-8.00;100.00
25560;BME280;13450;49.374;8.584;2022-12-18T08:46:27;101928.44;;;-7.71;100.00
25560;BME280;13450;49.374;8.584;2022-12-18T08:48:56;101929.00;;;-7.55;100.00
25560;BME280;13450;49.374;8.584;2022-12-18T08:51:21;101933.00;;;-7.38;100.00
25560;BME280;13450;49.374;8.584;2022-12-18T08:53:47;101924.84;;;-7.23;100.00
25560;BME280;13450;49.374;8.584;2022-12-18T08:56:13;101933.19;;;-7.06;100.00
25560;BME280;13450;49.374;8.584;2022-12-18T08:58:41;101911.25;;;-6.94;100.00
25560;BME280;13450;49.374;8.584;2022-12-18T09:01:09;101897.09;;;-6.83;100.00
25560;BME280;13450;49.374;8.584;2022-12-18T09:03:37;101900.28;;;-6.71;100.00
25560;BME280;13450;49.374;8.584;2022-12-18T09:06:06;101890.50;;;-6.61;100.00
25560;BME280;13450;49.374;8.584;2022-12-18T09:08:31;101898.09;;;-6.53;100.00
25560;BME280;13450;49.374;8.584;2022-12-18T09:10:57;101898.81;;;-6.47;100.00
25560;BME280;13450;49.374;8.584;2022-12-18T09:13:22;101888.09;;;-6.34;100.00
25560;BME280;13450;49.374;8.584;2022-12-18T09:15:53;101889.78;;;-6.33;100.00
25560;BME280;13450;49.374;8.584;2022-12-18T09:18:23;101900.00;;;-6.25;100.00
25560;BME280;13450;49.374;8.584;2022-12-18T09:20:48;101898.03;;;-6.15;100.00
25560;BME280;13450;49.374;8.584;2022-12-18T09:23:17;101896.31;;;-6.17;100.00
25560;BME280;13450;49.374;8.584;2022-12-18T09:25:44;101898.03;;;-6.15;100.00
25560;BME280;13450;49.374;8.584;2022-12-18T09:28:15;101893.50;;;-6.09;100.00
25560;BME280;13450;49.374;8.584;2022-12-18T09:30:43;101896.00;;;-6.04;100.00
25560;BME280;13450;49.374;8.584;2022-12-18T09:33:11;101893.97;;;-5.96;100.00
25560;BME280;13450;49.374;8.584;2022-12-18T09:35:40;101896.56;;;-5.94;100.00
25560;BME280;13450;49.374;8.584;2022-12-18T09:38:06;101913.78;;;-5.88;100.00
25560;BME280;13450;49.374;8.584;2022-12-18T09:40:36;101930.03;;;-5.77;100.00
25560;BME280;13450;49.374;8.584;2022-12-18T09:43:06;101924.53;;;-5.68;100.00
25560;BME280;13450;49.374;8.584;2022-12-18T09:45:42;101925.22;;;-5.61;100.00
25560;BME280;13450;49.374;8.584;2022-12-18T09:48:30;101920.75;;;-5.57;100.00
25560;BME280;13450;49.374;8.584;2022-12-18T09:51:04;101936.06;;;-5.45;100.00
25560;BME280;13450;49.374;8.584;2022-12-18T09:53:37;101943.78;;;-5.42;100.00
25560;BME280;13450;49.374;8.584;2022-12-18T09:56:05;101954.72;;;-5.27;100.00
25560;BME280;13450;49.374;8.584;2022-12-18T09:58:33;101963.13;;;-5.17;100.00
25560;BME280;13450;49.374;8.584;2022-12-18T10:01:01;101962.72;;;-5.03;100.00
25560;BME280;13450;49.374;8.584;2022-12-18T10:03:26;101960.03;;;-5.00;100.00
25560;BME280;13450;49.374;8.584;2022-12-18T10:06:14;101958.91;;;-4.93;100.00
25560;BME280;13450;49.374;8.584;2022-12-18T10:08:45;101949.72;;;-4.76;100.00
25560;BME280;13450;49.374;8.584;2022-12-18T10:11:37;101940.06;;;-4.47;100.00
25560;BME280;13450;49.374;8.584;2022-12-18T10:14:21;101925.09;;;-4.15;100.00
25560;BME280;13450;49.374;8.584;2022-12-18T10:20:02;101932.75;;;-1.84;100.00
25560;BME280;13450;49.374;8.584;2022-12-18T10:28:14;101940.84;;;0.67;100.00
25560;BME280;13450;49.374;8.584;2022-12-18T10:30:40;101961.88;;;0.69;97.69
25560;BME280;13450;49.374;8.584;2022-12-18T10:33:11;101957.09;;;0.59;98.35
25560;BME280;13450;49.374;8.584;2022-12-18T10:35:41;101941.28;;;0.91;97.54
25560;BME280;13450;49.374;8.584;2022-12-18T10:40:59;101931.41;;;1.11;95.25
25560;BME280;13450;49.374;8.584;2022-12-18T10:43:35;101927.00;;;1.12;89.12
25560;BME280;13450;49.374;8.584;2022-12-18T10:46:11;101922.34;;;1.48;90.32
25560;BME280;13450;49.374;8.584;2022-12-18T10:54:14;101913.72;;;1.13;91.25
25560;BME280;13450;49.374;8.584;2022-12-18T10:56:42;101914.25;;;1.04;93.57
25560;BME280;13450;49.374;8.584;2022-12-18T10:59:10;101919.66;;;1.33;93.19
25560;BME280;13450;49.374;8.584;2022-12-18T11:01:50;101914.78;;;1.41;87.93
25560;BME280;13450;49.374;8.584;2022-12-18T11:04:23;101920.22;;;1.69;92.51
25560;BME280;13450;49.374;8.584;2022-12-18T11:06:59;101926.81;;;2.51;82.11
25560;BME280;13450;49.374;8.584;2022-12-18T11:09:30;101918.75;;;3.77;73.24
25560;BME280;13450;49.374;8.584;2022-12-18T11:11:59;101914.84;;;4.09;65.82
25560;BME280;13450;49.374;8.584;2022-12-18T11:14:53;101925.25;;;4.75;64.20
25560;BME280;13450;49.374;8.584;2022-12-18T11:17:22;101937.41;;;5.15;60.66
25560;BME280;13450;49.374;8.584;2022-12-18T11:19:56;101934.13;;;5.60;60.71
25560;BME280;13450;49.374;8.584;2022-12-18T11:22:29;101926.69;;;4.55;59.94
25560;BME280;13450;49.374;8.584;2022-12-18T11:27:37;101930.22;;;4.03;61.64
25560;BME280;13450;49.374;8.584;2022-12-18T11:30:21;101925.63;;;3.79;61.68
25560;BME280;13450;49.374;8.584;2022-12-18T11:33:12;101919.59;;;4.29;61.79
25560;BME280;13450;49.374;8.584;2022-12-18T11:36:00;101918.69;;;4.68;62.51
25560;BME280;13450;49.374;8.584;2022-12-18T11:38:29;101919.06;;;4.37;62.46
25560;BME280;13450;49.374;8.584;2022-12-18T11:41:00;101915.78;;;4.34;59.87
25560;BME280;13450;49.374;8.584;2022-12-18T11:43:42;101929.47;;;4.40;61.64
25560;BME280;13450;49.374;8.584;2022-12-18T11:46:15;101926.88;;;4.52;59.76
25560;BME280;13450;49.374;8.584;2022-12-18T11:49:03;101912.91;;;4.37;59.75
25560;BME280;13450;49.374;8.584;2022-12-18T11:51:38;101904.25;;;4.09;58.23
25560;BME280;13450;49.374;8.584;2022-12-18T11:54:12;101897.09;;;4.48;59.15
25560;BME280;13450;49.374;8.584;2022-12-18T11:56:53;101892.69;;;3.84;61.04
25560;BME280;13450;49.374;8.584;2022-12-18T11:59:49;101886.13;;;3.23;64.65
25560;BME280;13450;49.374;8.584;2022-12-18T12:05:33;101903.91;;;2.79;70.78
25560;BME280;13450;49.374;8.584;2022-12-18T12:08:29;101910.00;;;2.66;70.19
25560;BME280;13450;49.374;8.584;2022-12-18T12:11:06;101899.47;;;2.08;74.45
25560;BME280;13450;49.374;8.584;2022-12-18T12:16:33;101897.75;;;1.92;78.91
25560;BME280;13450;49.374;8.584;2022-12-18T12:30:24;101869.44;;;1.80;85.00
25560;BME280;13450;49.374;8.584;2022-12-18T12:41:06;101880.09;;;0.70;95.25
25560;BME280;13450;49.374;8.584;2022-12-18T12:43:52;101884.84;;;0.63;97.03
25560;BME280;13450;49.374;8.584;2022-12-18T12:46:21;101879.72;;;0.60;97.48
25560;BME280;13450;49.374;8.584;2022-12-18T12:49:00;101872.56;;;0.62;100.00
25560;BME280;13450;49.374;8.584;2022-12-18T12:51:39;101874.75;;;0.38;100.00
25560;BME280;13450;49.374;8.584;2022-12-18T12:54:16;101863.50;;;0.02;100.00
25560;BME280;13450;49.374;8.584;2022-12-18T12:59:44;101861.50;;;-0.10;100.00
25560;BME280;13450;49.374;8.584;2022-12-18T13:02:35;101849.69;;;-0.19;100.00
25560;BME280;13450;49.374;8.584;2022-12-18T13:05:16;101854.34;;;-0.42;100.00
25560;BME280;13450;49.374;8.584;2022-12-18T13:13:07;101838.25;;;-0.71;100.00
25560;BME280;13450;49.374;8.584;2022-12-18T13:20:37;101816.66;;;-0.96;100.00
25560;BME280;13450;49.374;8.584;2022-12-18T13:25:54;101815.44;;;-0.88;100.00
25560;BME280;13450;49.374;8.584;2022-12-18T13:31:07;101813.56;;;-1.22;100.00
25560;BME280;13450;49.374;8.584;2022-12-18T13:33:42;101809.88;;;-1.37;100.00
25560;BME280;13450;49.374;8.584;2022-12-18T13:36:33;101811.59;;;-1.55;100.00
25560;BME280;13450;49.374;8.584;2022-12-18T13:41:38;101801.38;;;-1.61;100.00
25560;BME280;13450;49.374;8.584;2022-12-18T13:44:12;101808.91;;;-1.73;100.00
25560;BME280;13450;49.374;8.584;2022-12-18T13:51:47;101783.63;;;-1.94;100.00
25560;BME280;13450;49.374;8.584;2022-12-18T13:54:20;101794.28;;;-1.98;100.00
25560;BME280;13450;49.374;8.584;2022-12-18T13:56:49;101792.56;;;-1.99;100.00
25560;BME280;13450;49.374;8.584;2022-12-18T13:59:23;101801.78;;;-2.09;100.00
25560;BME280;13450;49.374;8.584;2022-12-18T14:01:50;101800.38;;;-2.16;100.00
25560;BME280;13450;49.374;8.584;2022-12-18T14:04:28;101797.19;;;-2.23;100.00
25560;BME280;13450;49.374;8.584;2022-12-18T14:07:17;101799.00;;;-2.25;100.00
25560;BME280;13450;49.374;8.584;2022-12-18T14:09:46;101804.31;;;-2.27;100.00
25560;BME280;13450;49.374;8.584;2022-12-18T14:12:33;101799.13;;;-2.28;100.00
25560;BME280;13450;49.374;8.584;2022-12-18T14:15:36;101809.97;;;-2.36;100.00
25560;BME280;13450;49.374;8.584;2022-12-18T14:18:23;101807.47;;;-2.39;100.00
25560;BME280;13450;49.374;8.584;2022-12-18T14:20:53;101799.88;;;-2.45;100.00
25560;BME280;13450;49.374;8.584;2022-12-18T14:23:40;101800.16;;;-2.52;100.00
25560;BME280;13450;49.374;8.584;2022-12-18T14:26:28;101802.13;;;-2.57;100.00
25560;BME280;13450;49.374;8.584;2022-12-18T14:28:58;101802.25;;;-2.60;100.00
25560;BME280;13450;49.374;8.584;2022-12-18T14:31:27;101790.06;;;-2.61;100.00